Thursday, June 21, 2018, 12:10 PM EDT
Back to Local

KMTP, Montauk Airport

Location: Montauk, NY, United States Lat: 41.067
Local Time: 12:10 PM EDT (16:10 GMT) Lon: -71.917
Time Zone: US/Eastern Elev: 6 ft

Show me the last for .
Show Decoded

2018-06-21 11:54 METAR KMTP 211554Z AUTO 02006KT 19/18 A2980 RMK AO1 SLP091 T01890178 =
2018-06-21 10:54 METAR KMTP 211454Z AUTO 03004KT 18/17 A2980 RMK AO1 SLP090 T01780172 53007 =
2018-06-21 09:54 METAR KMTP 211354Z AUTO 00000KT 17/17 A2979 RMK AO1 SLP088 T01720172 =
2018-06-21 08:54 METAR KMTP 211254Z AUTO VRB03KT 18/18 A2978 RMK AO1 SLP084 T01780178 =
2018-06-21 07:54 METAR KMTP 211154Z AUTO 00000KT 18/17 A2978 RMK AO1 SLP083 60031 70031 T01780172
                 10206 20172 55001 =
2018-06-21 06:54 METAR KMTP 211054Z AUTO 00000KT 18/17 A2978 RMK AO1 SLP083 P0001 T01780167 =
2018-06-21 05:54 METAR KMTP 210954Z AUTO 01003KT 17/17 A2978 RMK AO1 SLP083 P0003 T01720172 =
2018-06-21 04:54 METAR KMTP 210854Z AUTO 34006KT 18/17 A2978 RMK AO1 SLP085 P0010 60027 T01780172
                 56004 =
2018-06-21 03:54 METAR KMTP 210754Z AUTO 29004KT 18/18 A2978 RMK AO1 SLP085 P0012 T01830183 =
2018-06-21 02:54 METAR KMTP 210654Z AUTO 26004KT 19/19 A2979 RMK AO1 SLP088 P0005 T01940189 =
2018-06-21 01:54 METAR KMTP 210554Z AUTO 00000KT 19/18 A2980 RMK AO1 SLP089 T01940183 10200 20189
                 58008 =
2018-06-21 00:54 METAR KMTP 210454Z AUTO 00000KT 19/18 A2980 RMK AO1 SLP090 T01890183 402500150 =
2018-06-20 23:54 METAR KMTP 210354Z AUTO 20004KT 19/18 A2981 RMK AO1 SLP096 T01940183 =
2018-06-20 22:54 METAR KMTP 210254Z AUTO 20004KT 20/18 A2982 RMK AO1 SLP097 T02000183 50001 =
2018-06-20 21:54 METAR KMTP 210154Z AUTO 21004KT 19/18 A2982 RMK AO1 SLP099 T01940183 =
2018-06-20 20:54 METAR KMTP 210054Z AUTO 22005KT 20/19 A2981 RMK AO1 SLP095 T02000189 =
2018-06-20 19:54 METAR KMTP 202354Z AUTO 21006KT 20/18 A2981 RMK AO1 SLP095 T02000183 10244 20194
                 55011 =
2018-06-20 18:54 METAR KMTP 202254Z AUTO 20005KT 20/19 A2981 RMK AO1 SLP094 T02000189 =
2018-06-20 17:54 METAR KMTP 202154Z AUTO 21005KT 21/19 A2982 RMK AO1 SLP098 T02060189 =
2018-06-20 16:54 METAR KMTP 202054Z AUTO VRB05KT 22/18 A2985 RMK AO1 SLP106 T02170183 58007 =
2018-06-20 15:54 METAR KMTP 201954Z AUTO 21008KT 23/18 A2986 RMK AO1 SLP110 T02280183 =
2018-06-20 14:54 METAR KMTP 201854Z AUTO VRB05KT 24/18 A2986 RMK AO1 SLP111 T02390183 =
2018-06-20 13:54 METAR KMTP 201754Z AUTO VRB05KT 24/18 A2987 RMK AO1 SLP113 T02390178 10250 20178
                 58013 =
2018-06-20 12:54 METAR KMTP 201654Z AUTO VRB04KT 24/18 A2989 RMK AO1 SLP119 T02390178 =

Support USWX by starting your Amazon purchase here.